sensor_id;sensor_type;location;lat;lon;timestamp;temperature;humidity
19017;DHT22;9641;51.494;6.670;2023-03-01T00:00:52;-1.60;1.00
19017;DHT22;9641;51.494;6.670;2023-03-01T00:03:19;-1.60;1.00
19017;DHT22;9641;51.494;6.670;2023-03-01T00:05:47;-1.60;1.00
19017;DHT22;9641;51.494;6.670;2023-03-01T00:08:14;-1.50;3.20
19017;DHT22;9641;51.494;6.670;2023-03-01T00:10:41;-1.30;1.00
19017;DHT22;9641;51.494;6.670;2023-03-01T00:13:07;-1.30;1.00
19017;DHT22;9641;51.494;6.670;2023-03-01T00:15:38;-1.40;1.00
19017;DHT22;9641;51.494;6.670;2023-03-01T00:18:05;-1.30;1.00
19017;DHT22;9641;51.494;6.670;2023-03-01T00:20:32;-1.40;1.00
19017;DHT22;9641;51.494;6.670;2023-03-01T00:23:00;-1.40;1.00
19017;DHT22;9641;51.494;6.670;2023-03-01T00:25:27;-1.50;1.00
19017;DHT22;9641;51.494;6.670;2023-03-01T00:27:53;-1.60;1.00
19017;DHT22;9641;51.494;6.670;2023-03-01T00:30:20;-1.60;1.00
19017;DHT22;9641;51.494;6.670;2023-03-01T00:32:47;-1.70;1.00
19017;DHT22;9641;51.494;6.670;2023-03-01T00:35:14;-1.80;10.60
19017;DHT22;9641;51.494;6.670;2023-03-01T00:37:41;-1.80;9.60
19017;DHT22;9641;51.494;6.670;2023-03-01T00:40:10;-1.80;9.70
19017;DHT22;9641;51.494;6.670;2023-03-01T00:42:37;-1.80;13.50
19017;DHT22;9641;51.494;6.670;2023-03-01T00:45:05;-1.90;20.20
19017;DHT22;9641;51.494;6.670;2023-03-01T00:47:33;-1.90;21.40
19017;DHT22;9641;51.494;6.670;2023-03-01T00:50:00;-1.90;30.80
19017;DHT22;9641;51.494;6.670;2023-03-01T00:52:27;-2.00;20.70
19017;DHT22;9641;51.494;6.670;2023-03-01T00:54:54;-2.10;27.70
19017;DHT22;9641;51.494;6.670;2023-03-01T00:57:22;-2.10;36.40
19017;DHT22;9641;51.494;6.670;2023-03-01T00:59:49;-2.10;41.10
19017;DHT22;9641;51.494;6.670;2023-03-01T01:02:18;-2.20;45.50
19017;DHT22;9641;51.494;6.670;2023-03-01T01:04:45;-2.10;43.60
19017;DHT22;9641;51.494;6.670;2023-03-01T01:07:12;-2.10;45.60
19017;DHT22;9641;51.494;6.670;2023-03-01T01:09:38;-2.10;52.70
19017;DHT22;9641;51.494;6.670;2023-03-01T01:12:06;-2.20;36.00
19017;DHT22;9641;51.494;6.670;2023-03-01T01:14:35;-2.20;45.20
19017;DHT22;9641;51.494;6.670;2023-03-01T01:17:02;-2.20;49.60
19017;DHT22;9641;51.494;6.670;2023-03-01T01:19:29;-2.20;46.40
19017;DHT22;9641;51.494;6.670;2023-03-01T01:21:56;-2.20;47.30
19017;DHT22;9641;51.494;6.670;2023-03-01T01:24:23;-2.20;53.80
19017;DHT22;9641;51.494;6.670;2023-03-01T01:26:49;-2.10;48.80
19017;DHT22;9641;51.494;6.670;2023-03-01T01:29:16;-2.00;40.00
19017;DHT22;9641;51.494;6.670;2023-03-01T01:31:45;-2.00;30.50
19017;DHT22;9641;51.494;6.670;2023-03-01T01:34:14;-2.10;28.10
19017;DHT22;9641;51.494;6.670;2023-03-01T01:36:41;-2.10;29.20
19017;DHT22;9641;51.494;6.670;2023-03-01T01:39:08;-2.20;36.00
19017;DHT22;9641;51.494;6.670;2023-03-01T01:41:39;-2.30;44.40
19017;DHT22;9641;51.494;6.670;2023-03-01T01:44:13;-2.40;53.00
19017;DHT22;9641;51.494;6.670;2023-03-01T01:46:41;-2.50;59.00
19017;DHT22;9641;51.494;6.670;2023-03-01T01:49:17;-2.60;74.70
19017;DHT22;9641;51.494;6.670;2023-03-01T01:51:47;-2.50;91.10
19017;DHT22;9641;51.494;6.670;2023-03-01T01:54:18;-2.50;83.50
19017;DHT22;9641;51.494;6.670;2023-03-01T01:56:49;-2.50;81.70
19017;DHT22;9641;51.494;6.670;2023-03-01T01:59:17;-2.50;87.00
19017;DHT22;9641;51.494;6.670;2023-03-01T02:01:44;-2.50;91.60
19017;DHT22;9641;51.494;6.670;2023-03-01T02:04:12;-2.50;90.10
19017;DHT22;9641;51.494;6.670;2023-03-01T02:06:43;-2.40;87.70
19017;DHT22;9641;51.494;6.670;2023-03-01T02:09:14;-2.30;92.00
19017;DHT22;9641;51.494;6.670;2023-03-01T02:11:43;-2.30;65.90
19017;DHT22;9641;51.494;6.670;2023-03-01T02:14:11;-2.30;62.20
19017;DHT22;9641;51.494;6.670;2023-03-01T02:16:38;-2.40;65.60
19017;DHT22;9641;51.494;6.670;2023-03-01T02:19:05;-2.40;72.90
19017;DHT22;9641;51.494;6.670;2023-03-01T02:21:41;-2.40;77.60
19017;DHT22;9641;51.494;6.670;2023-03-01T02:24:16;-2.50;85.30
19017;DHT22;9641;51.494;6.670;2023-03-01T02:26:51;-2.50;81.20
19017;DHT22;9641;51.494;6.670;2023-03-01T02:29:20;-2.60;81.50
19017;DHT22;9641;51.494;6.670;2023-03-01T02:31:48;-2.60;93.10
19017;DHT22;9641;51.494;6.670;2023-03-01T02:34:17;-2.60;96.60
19017;DHT22;9641;51.494;6.670;2023-03-01T02:36:47;-2.60;91.90
19017;DHT22;9641;51.494;6.670;2023-03-01T02:39:17;-2.60;90.10
19017;DHT22;9641;51.494;6.670;2023-03-01T02:41:49;-2.70;94.90
19017;DHT22;9641;51.494;6.670;2023-03-01T02:44:16;-2.60;99.90
19017;DHT22;9641;51.494;6.670;2023-03-01T02:46:49;-2.60;99.10
19017;DHT22;9641;51.494;6.670;2023-03-01T02:49:20;-2.60;96.90
19017;DHT22;9641;51.494;6.670;2023-03-01T02:51:54;-2.60;97.50
19017;DHT22;9641;51.494;6.670;2023-03-01T02:54:29;-2.50;99.20
19017;DHT22;9641;51.494;6.670;2023-03-01T02:56:59;-2.60;93.60
19017;DHT22;9641;51.494;6.670;2023-03-01T02:59:31;-2.60;92.60
19017;DHT22;9641;51.494;6.670;2023-03-01T03:02:02;-2.70;91.10
19017;DHT22;9641;51.494;6.670;2023-03-01T03:04:28;-2.70;93.50
19017;DHT22;9641;51.494;6.670;2023-03-01T03:06:55;-2.80;96.40
19017;DHT22;9641;51.494;6.670;2023-03-01T03:09:22;-2.90;96.50
19017;DHT22;9641;51.494;6.670;2023-03-01T03:11:49;-3.00;99.90
19017;DHT22;9641;51.494;6.670;2023-03-01T03:14:17;-3.00;99.90
19017;DHT22;9641;51.494;6.670;2023-03-01T03:16:48;-3.10;99.90
19017;DHT22;9641;51.494;6.670;2023-03-01T03:19:16;-3.00;99.90
19017;DHT22;9641;51.494;6.670;2023-03-01T03:21:44;-3.00;99.90
19017;DHT22;9641;51.494;6.670;2023-03-01T03:24:10;-3.00;99.90
19017;DHT22;9641;51.494;6.670;2023-03-01T03:26:37;-3.00;99.90
19017;DHT22;9641;51.494;6.670;2023-03-01T03:29:04;-2.90;99.90
19017;DHT22;9641;51.494;6.670;2023-03-01T03:31:31;-2.90;99.90
19017;DHT22;9641;51.494;6.670;2023-03-01T03:33:58;-2.90;99.90
19017;DHT22;9641;51.494;6.670;2023-03-01T03:36:26;-2.90;99.90
19017;DHT22;9641;51.494;6.670;2023-03-01T03:38:54;-2.80;99.90
19017;DHT22;9641;51.494;6.670;2023-03-01T03:41:21;-2.80;99.90
19017;DHT22;9641;51.494;6.670;2023-03-01T03:43:47;-2.70;99.90
19017;DHT22;9641;51.494;6.670;2023-03-01T03:46:14;-2.70;99.90
19017;DHT22;9641;51.494;6.670;2023-03-01T03:48:44;-2.70;99.90
19017;DHT22;9641;51.494;6.670;2023-03-01T03:51:13;-2.60;99.90
19017;DHT22;9641;51.494;6.670;2023-03-01T03:53:43;-2.70;95.20
19017;DHT22;9641;51.494;6.670;2023-03-01T03:56:11;-2.80;97.20
19017;DHT22;9641;51.494;6.670;2023-03-01T03:58:38;-2.90;99.90
19017;DHT22;9641;51.494;6.670;2023-03-01T04:01:06;-2.90;99.90
19017;DHT22;9641;51.494;6.670;2023-03-01T04:03:33;-3.00;99.90
19017;DHT22;9641;51.494;6.670;2023-03-01T04:06:01;-3.10;99.90
19017;DHT22;9641;51.494;6.670;2023-03-01T04:08:28;-3.20;99.90
19017;DHT22;9641;51.494;6.670;2023-03-01T04:10:59;-3.20;99.90
19017;DHT22;9641;51.494;6.670;2023-03-01T04:13:47;-3.30;99.90
19017;DHT22;9641;51.494;6.670;2023-03-01T04:16:13;-3.20;99.90
19017;DHT22;9641;51.494;6.670;2023-03-01T04:18:40;-3.20;99.90
19017;DHT22;9641;51.494;6.670;2023-03-01T04:21:07;-3.10;99.90
19017;DHT22;9641;51.494;6.670;2023-03-01T04:23:34;-3.20;99.90
19017;DHT22;9641;51.494;6.670;2023-03-01T04:26:03;-3.30;99.90
19017;DHT22;9641;51.494;6.670;2023-03-01T04:28:32;-3.40;99.90
19017;DHT22;9641;51.494;6.670;2023-03-01T04:31:03;-3.30;99.90
19017;DHT22;9641;51.494;6.670;2023-03-01T04:33:38;-3.30;99.90
19017;DHT22;9641;51.494;6.670;2023-03-01T04:36:06;-3.30;99.90
19017;DHT22;9641;51.494;6.670;2023-03-01T04:38:34;-3.10;99.90
19017;DHT22;9641;51.494;6.670;2023-03-01T04:41:04;-3.00;99.90
19017;DHT22;9641;51.494;6.670;2023-03-01T04:43:31;-3.00;99.90
19017;DHT22;9641;51.494;6.670;2023-03-01T04:46:03;-3.00;99.90
19017;DHT22;9641;51.494;6.670;2023-03-01T04:48:32;-3.10;99.90
19017;DHT22;9641;51.494;6.670;2023-03-01T04:50:59;-3.10;99.90
19017;DHT22;9641;51.494;6.670;2023-03-01T04:53:26;-3.10;99.90
19017;DHT22;9641;51.494;6.670;2023-03-01T04:55:54;-3.00;99.90
19017;DHT22;9641;51.494;6.670;2023-03-01T04:58:22;-3.00;99.90
19017;DHT22;9641;51.494;6.670;2023-03-01T05:00:50;-2.80;99.90
19017;DHT22;9641;51.494;6.670;2023-03-01T05:03:21;-2.70;99.90
19017;DHT22;9641;51.494;6.670;2023-03-01T05:05:49;-2.60;99.90
19017;DHT22;9641;51.494;6.670;2023-03-01T05:08:17;-2.70;94.10
19017;DHT22;9641;51.494;6.670;2023-03-01T05:10:45;-2.70;98.10
19017;DHT22;9641;51.494;6.670;2023-03-01T05:13:13;-2.70;99.30
19017;DHT22;9641;51.494;6.670;2023-03-01T05:15:54;-2.80;99.20
19017;DHT22;9641;51.494;6.670;2023-03-01T05:18:22;-2.80;99.90
19017;DHT22;9641;51.494;6.670;2023-03-01T05:20:51;-2.80;99.90
19017;DHT22;9641;51.494;6.670;2023-03-01T05:23:18;-2.90;99.90
19017;DHT22;9641;51.494;6.670;2023-03-01T05:25:45;-2.90;99.90
19017;DHT22;9641;51.494;6.670;2023-03-01T05:28:12;-2.90;99.90
19017;DHT22;9641;51.494;6.670;2023-03-01T05:30:39;-2.70;99.90
19017;DHT22;9641;51.494;6.670;2023-03-01T05:33:08;-2.60;91.70
19017;DHT22;9641;51.494;6.670;2023-03-01T05:35:39;-2.70;92.60
19017;DHT22;9641;51.494;6.670;2023-03-01T05:38:07;-2.60;86.40
19017;DHT22;9641;51.494;6.670;2023-03-01T05:40:34;-2.60;90.80
19017;DHT22;9641;51.494;6.670;2023-03-01T05:43:01;-2.60;86.10
19017;DHT22;9641;51.494;6.670;2023-03-01T05:45:31;-2.50;74.50
19017;DHT22;9641;51.494;6.670;2023-03-01T05:47:59;-2.40;61.90
19017;DHT22;9641;51.494;6.670;2023-03-01T05:50:29;-2.50;54.20
19017;DHT22;9641;51.494;6.670;2023-03-01T05:53:01;-2.40;62.00
19017;DHT22;9641;51.494;6.670;2023-03-01T05:55:29;-2.50;62.50
19017;DHT22;9641;51.494;6.670;2023-03-01T05:57:58;-2.40;66.70
19017;DHT22;9641;51.494;6.670;2023-03-01T06:00:26;-2.40;66.70
19017;DHT22;9641;51.494;6.670;2023-03-01T06:02:53;-2.40;61.90
19017;DHT22;9641;51.494;6.670;2023-03-01T06:05:21;-2.40;57.60
19017;DHT22;9641;51.494;6.670;2023-03-01T06:07:50;-2.40;56.60
19017;DHT22;9641;51.494;6.670;2023-03-01T06:10:17;-2.40;56.10
19017;DHT22;9641;51.494;6.670;2023-03-01T06:12:46;-2.40;61.60
19017;DHT22;9641;51.494;6.670;2023-03-01T06:15:15;-2.40;58.70
19017;DHT22;9641;51.494;6.670;2023-03-01T06:17:44;-2.30;53.10
19017;DHT22;9641;51.494;6.670;2023-03-01T06:20:13;-2.30;52.10
19017;DHT22;9641;51.494;6.670;2023-03-01T06:22:40;-2.30;52.70
19017;DHT22;9641;51.494;6.670;2023-03-01T06:25:09;-2.30;44.60
19017;DHT22;9641;51.494;6.670;2023-03-01T06:27:38;-2.30;48.80
19017;DHT22;9641;51.494;6.670;2023-03-01T06:30:06;-2.40;55.80
19017;DHT22;9641;51.494;6.670;2023-03-01T06:32:33;-2.50;62.80
19017;DHT22;9641;51.494;6.670;2023-03-01T06:35:00;-2.50;70.60
19017;DHT22;9641;51.494;6.670;2023-03-01T06:37:27;-2.60;88.90
19017;DHT22;9641;51.494;6.670;2023-03-01T06:39:54;-2.50;96.00
19017;DHT22;9641;51.494;6.670;2023-03-01T06:42:22;-2.50;86.40
19017;DHT22;9641;51.494;6.670;2023-03-01T06:44:49;-2.40;86.40
19017;DHT22;9641;51.494;6.670;2023-03-01T06:47:15;-2.40;81.40
19017;DHT22;9641;51.494;6.670;2023-03-01T06:49:42;-2.40;83.10
19017;DHT22;9641;51.494;6.670;2023-03-01T06:52:09;-2.30;68.00
19017;DHT22;9641;51.494;6.670;2023-03-01T06:54:36;-2.30;67.30
19017;DHT22;9641;51.494;6.670;2023-03-01T06:57:03;-2.30;65.80
19017;DHT22;9641;51.494;6.670;2023-03-01T06:59:31;-2.30;72.00
19017;DHT22;9641;51.494;6.670;2023-03-01T07:01:58;-2.30;77.70
19017;DHT22;9641;51.494;6.670;2023-03-01T07:04:25;-2.20;80.60
19017;DHT22;9641;51.494;6.670;2023-03-01T07:06:54;-2.10;75.00
19017;DHT22;9641;51.494;6.670;2023-03-01T07:09:21;-2.10;65.90
19017;DHT22;9641;51.494;6.670;2023-03-01T07:11:48;-2.00;59.60
19017;DHT22;9641;51.494;6.670;2023-03-01T07:14:15;-2.00;58.50
19017;DHT22;9641;51.494;6.670;2023-03-01T07:16:44;-1.90;59.50
19017;DHT22;9641;51.494;6.670;2023-03-01T07:19:10;-1.90;58.20
19017;DHT22;9641;51.494;6.670;2023-03-01T07:21:37;-1.80;53.80
19017;DHT22;9641;51.494;6.670;2023-03-01T07:24:06;-1.70;45.40
19017;DHT22;9641;51.494;6.670;2023-03-01T07:26:33;-1.60;44.40
19017;DHT22;9641;51.494;6.670;2023-03-01T07:29:00;-1.50;31.50
19017;DHT22;9641;51.494;6.670;2023-03-01T07:31:27;-1.50;28.10
19017;DHT22;9641;51.494;6.670;2023-03-01T07:33:55;-1.40;28.40
19017;DHT22;9641;51.494;6.670;2023-03-01T07:36:24;-1.30;11.00
19017;DHT22;9641;51.494;6.670;2023-03-01T07:38:51;-1.20;4.20
19017;DHT22;9641;51.494;6.670;2023-03-01T07:41:18;-1.20;2.00
19017;DHT22;9641;51.494;6.670;2023-03-01T07:43:45;-1.10;1.00
19017;DHT22;9641;51.494;6.670;2023-03-01T07:46:12;-1.00;1.00
19017;DHT22;9641;51.494;6.670;2023-03-01T07:48:39;-0.90;1.00
19017;DHT22;9641;51.494;6.670;2023-03-01T07:51:08;-0.80;1.00
19017;DHT22;9641;51.494;6.670;2023-03-01T07:53:35;-0.70;1.00
19017;DHT22;9641;51.494;6.670;2023-03-01T07:56:03;-0.70;1.00
19017;DHT22;9641;51.494;6.670;2023-03-01T07:58:30;-0.60;1.00
19017;DHT22;9641;51.494;6.670;2023-03-01T08:01:01;-0.60;1.00
19017;DHT22;9641;51.494;6.670;2023-03-01T08:03:28;-0.50;1.00
19017;DHT22;9641;51.494;6.670;2023-03-01T08:05:55;-0.40;1.00
19017;DHT22;9641;51.494;6.670;2023-03-01T08:08:23;-0.30;1.00
19017;DHT22;9641;51.494;6.670;2023-03-01T08:10:50;-0.20;1.00
19017;DHT22;9641;51.494;6.670;2023-03-01T08:13:17;-0.20;1.00
19017;DHT22;9641;51.494;6.670;2023-03-01T08:15:47;-0.10;1.00
19017;DHT22;9641;51.494;6.670;2023-03-01T08:18:15;0.00;1.00
19017;DHT22;9641;51.494;6.670;2023-03-01T08:20:42;0.00;1.00
19017;DHT22;9641;51.494;6.670;2023-03-01T08:23:08;0.10;1.00
19017;DHT22;9641;51.494;6.670;2023-03-01T08:25:45;0.10;1.00
19017;DHT22;9641;51.494;6.670;2023-03-01T08:28:12;0.10;1.00
19017;DHT22;9641;51.494;6.670;2023-03-01T08:30:39;0.30;1.00
19017;DHT22;9641;51.494;6.670;2023-03-01T08:33:09;0.40;1.00
19017;DHT22;9641;51.494;6.670;2023-03-01T08:35:36;0.50;1.00
19017;DHT22;9641;51.494;6.670;2023-03-01T08:38:03;0.50;1.00
19017;DHT22;9641;51.494;6.670;2023-03-01T08:40:29;0.60;1.00
19017;DHT22;9641;51.494;6.670;2023-03-01T08:42:59;0.70;1.00
19017;DHT22;9641;51.494;6.670;2023-03-01T08:45:26;0.80;99.90
19017;DHT22;9641;51.494;6.670;2023-03-01T08:47:53;0.80;1.00
19017;DHT22;9641;51.494;6.670;2023-03-01T08:50:20;0.90;1.00
19017;DHT22;9641;51.494;6.670;2023-03-01T08:52:50;1.00;1.00
19017;DHT22;9641;51.494;6.670;2023-03-01T08:55:16;1.00;99.90
19017;DHT22;9641;51.494;6.670;2023-03-01T08:57:43;1.10;27.90
19017;DHT22;9641;51.494;6.670;2023-03-01T09:00:13;1.30;1.00
19017;DHT22;9641;51.494;6.670;2023-03-01T09:02:41;1.30;1.00
19017;DHT22;9641;51.494;6.670;2023-03-01T09:05:08;1.50;1.00
19017;DHT22;9641;51.494;6.670;2023-03-01T09:07:35;1.60;99.90
19017;DHT22;9641;51.494;6.670;2023-03-01T09:10:02;1.70;1.00
19017;DHT22;9641;51.494;6.670;2023-03-01T09:12:29;1.80;1.00
19017;DHT22;9641;51.494;6.670;2023-03-01T09:14:56;1.80;1.00
19017;DHT22;9641;51.494;6.670;2023-03-01T09:17:24;1.90;99.90
19017;DHT22;9641;51.494;6.670;2023-03-01T09:19:51;2.00;99.90
19017;DHT22;9641;51.494;6.670;2023-03-01T09:22:18;2.10;1.00
19017;DHT22;9641;51.494;6.670;2023-03-01T09:24:45;2.20;1.00
19017;DHT22;9641;51.494;6.670;2023-03-01T09:27:12;2.30;1.00
19017;DHT22;9641;51.494;6.670;2023-03-01T09:29:40;2.30;1.00
19017;DHT22;9641;51.494;6.670;2023-03-01T09:32:07;2.40;99.90
19017;DHT22;9641;51.494;6.670;2023-03-01T09:34:35;2.50;99.90
19017;DHT22;9641;51.494;6.670;2023-03-01T09:37:22;2.50;13.10
19017;DHT22;9641;51.494;6.670;2023-03-01T09:39:52;2.60;1.00
19017;DHT22;9641;51.494;6.670;2023-03-01T09:42:19;2.70;99.90
19017;DHT22;9641;51.494;6.670;2023-03-01T09:44:52;2.80;99.90
19017;DHT22;9641;51.494;6.670;2023-03-01T09:47:26;2.90;99.90
19017;DHT22;9641;51.494;6.670;2023-03-01T09:50:03;3.10;99.90
19017;DHT22;9641;51.494;6.670;2023-03-01T09:52:35;3.20;24.60
19017;DHT22;9641;51.494;6.670;2023-03-01T09:55:11;3.30;1.00
19017;DHT22;9641;51.494;6.670;2023-03-01T09:57:43;3.30;1.00
19017;DHT22;9641;51.494;6.670;2023-03-01T10:00:29;3.40;1.00
19017;DHT22;9641;51.494;6.670;2023-03-01T10:03:03;3.50;1.00
19017;DHT22;9641;51.494;6.670;2023-03-01T10:05:44;3.50;1.00
19017;DHT22;9641;51.494;6.670;2023-03-01T10:08:27;3.60;1.00
19017;DHT22;9641;51.494;6.670;2023-03-01T10:10:59;3.60;1.00
19017;DHT22;9641;51.494;6.670;2023-03-01T10:13:33;3.70;1.00
19017;DHT22;9641;51.494;6.670;2023-03-01T10:16:05;3.80;1.00
19017;DHT22;9641;51.494;6.670;2023-03-01T10:18:37;3.70;1.00
19017;DHT22;9641;51.494;6.670;2023-03-01T10:21:14;3.80;1.00
19017;DHT22;9641;51.494;6.670;2023-03-01T10:23:42;3.80;1.00
19017;DHT22;9641;51.494;6.670;2023-03-01T10:26:24;3.90;1.00
19017;DHT22;9641;51.494;6.670;2023-03-01T10:28:58;4.10;1.00
19017;DHT22;9641;51.494;6.670;2023-03-01T10:31:36;4.10;1.00
19017;DHT22;9641;51.494;6.670;2023-03-01T10:34:09;4.10;1.00
19017;DHT22;9641;51.494;6.670;2023-03-01T10:36:39;4.30;1.00
19017;DHT22;9641;51.494;6.670;2023-03-01T10:39:12;4.50;1.00
19017;DHT22;9641;51.494;6.670;2023-03-01T10:41:52;4.50;1.00
19017;DHT22;9641;51.494;6.670;2023-03-01T10:44:38;4.80;1.00
19017;DHT22;9641;51.494;6.670;2023-03-01T10:47:17;4.80;99.90
19017;DHT22;9641;51.494;6.670;2023-03-01T10:49:54;4.60;99.90
19017;DHT22;9641;51.494;6.670;2023-03-01T10:52:26;4.50;99.90
19017;DHT22;9641;51.494;6.670;2023-03-01T10:54:55;5.20;99.90
19017;DHT22;9641;51.494;6.670;2023-03-01T10:57:32;6.90;99.90
19017;DHT22;9641;51.494;6.670;2023-03-01T11:00:23;8.00;99.90
19017;DHT22;9641;51.494;6.670;2023-03-01T11:03:01;8.30;99.90
19017;DHT22;9641;51.494;6.670;2023-03-01T11:05:29;8.20;99.90
19017;DHT22;9641;51.494;6.670;2023-03-01T11:08:01;8.50;99.90
19017;DHT22;9641;51.494;6.670;2023-03-01T11:10:30;8.60;99.90
19017;DHT22;9641;51.494;6.670;2023-03-01T11:13:08;9.20;99.90
19017;DHT22;9641;51.494;6.670;2023-03-01T11:15:40;9.20;99.90
19017;DHT22;9641;51.494;6.670;2023-03-01T11:18:19;10.00;99.90
19017;DHT22;9641;51.494;6.670;2023-03-01T11:20:48;9.60;99.90
19017;DHT22;9641;51.494;6.670;2023-03-01T11:23:18;10.20;99.90
19017;DHT22;9641;51.494;6.670;2023-03-01T11:25:51;9.50;99.90
19017;DHT22;9641;51.494;6.670;2023-03-01T11:28:22;9.10;99.90
19017;DHT22;9641;51.494;6.670;2023-03-01T11:30:53;9.60;99.90
19017;DHT22;9641;51.494;6.670;2023-03-01T11:33:31;9.10;99.90
19017;DHT22;9641;51.494;6.670;2023-03-01T11:36:03;9.20;99.90
19017;DHT22;9641;51.494;6.670;2023-03-01T11:38:35;9.30;99.90
19017;DHT22;9641;51.494;6.670;2023-03-01T11:41:07;10.00;99.90
19017;DHT22;9641;51.494;6.670;2023-03-01T11:43:44;10.20;99.90
19017;DHT22;9641;51.494;6.670;2023-03-01T11:46:43;9.80;99.90
19017;DHT22;9641;51.494;6.670;2023-03-01T11:49:37;9.30;99.90
19017;DHT22;9641;51.494;6.670;2023-03-01T11:52:17;9.80;99.90
19017;DHT22;9641;51.494;6.670;2023-03-01T11:54:58;10.60;99.90
19017;DHT22;9641;51.494;6.670;2023-03-01T11:57:43;10.40;99.90
19017;DHT22;9641;51.494;6.670;2023-03-01T12:03:27;10.20;99.90
19017;DHT22;9641;51.494;6.670;2023-03-01T12:06:27;9.10;99.90
19017;DHT22;9641;51.494;6.670;2023-03-01T12:09:07;9.60;99.90
19017;DHT22;9641;51.494;6.670;2023-03-01T12:11:47;10.30;99.90
19017;DHT22;9641;51.494;6.670;2023-03-01T12:14:41;10.70;99.90
19017;DHT22;9641;51.494;6.670;2023-03-01T12:17:44;10.60;99.90
19017;DHT22;9641;51.494;6.670;2023-03-01T12:20:21;11.00;99.90
19017;DHT22;9641;51.494;6.670;2023-03-01T12:23:02;10.60;99.90
19017;DHT22;9641;51.494;6.670;2023-03-01T12:25:36;10.40;99.90
19017;DHT22;9641;51.494;6.670;2023-03-01T12:28:29;11.00;99.90
19017;DHT22;9641;51.494;6.670;2023-03-01T12:31:29;11.10;99.90
19017;DHT22;9641;51.494;6.670;2023-03-01T12:34:05;11.50;99.90
19017;DHT22;9641;51.494;6.670;2023-03-01T12:36:47;11.20;99.90
19017;DHT22;9641;51.494;6.670;2023-03-01T12:39:47;11.20;99.90
19017;DHT22;9641;51.494;6.670;2023-03-01T12:42:23;11.40;99.90
19017;DHT22;9641;51.494;6.670;2023-03-01T12:45:16;11.40;99.90
19017;DHT22;9641;51.494;6.670;2023-03-01T12:47:58;11.30;99.90
19017;DHT22;9641;51.494;6.670;2023-03-01T12:50:38;11.10;99.90
19017;DHT22;9641;51.494;6.670;2023-03-01T12:53:17;11.30;99.90
19017;DHT22;9641;51.494;6.670;2023-03-01T12:55:48;12.10;99.90
19017;DHT22;9641;51.494;6.670;2023-03-01T12:58:23;12.40;99.90
19017;DHT22;9641;51.494;6.670;2023-03-01T13:01:05;12.60;99.90
19017;DHT22;9641;51.494;6.670;2023-03-01T13:03:55;13.30;99.90
19017;DHT22;9641;51.494;6.670;2023-03-01T13:06:29;13.10;99.90
19017;DHT22;9641;51.494;6.670;2023-03-01T13:09:10;13.20;99.90
19017;DHT22;9641;51.494;6.670;2023-03-01T13:11:41;13.30;99.90
19017;DHT22;9641;51.494;6.670;2023-03-01T13:14:44;13.60;99.90
19017;DHT22;9641;51.494;6.670;2023-03-01T13:17:39;13.20;99.90
19017;DHT22;9641;51.494;6.670;2023-03-01T13:20:15;13.40;99.90
19017;DHT22;9641;51.494;6.670;2023-03-01T13:22:45;12.70;99.90
19017;DHT22;9641;51.494;6.670;2023-03-01T13:25:16;12.70;99.90
19017;DHT22;9641;51.494;6.670;2023-03-01T13:27:43;13.90;99.90
19017;DHT22;9641;51.494;6.670;2023-03-01T13:30:41;14.00;99.90
19017;DHT22;9641;51.494;6.670;2023-03-01T13:39:32;14.50;99.90
19017;DHT22;9641;51.494;6.670;2023-03-01T13:42:36;14.50;99.90
19017;DHT22;9641;51.494;6.670;2023-03-01T13:47:56;14.00;99.90
19017;DHT22;9641;51.494;6.670;2023-03-01T13:50:27;12.40;99.90
19017;DHT22;9641;51.494;6.670;2023-03-01T13:52:57;12.70;99.90
19017;DHT22;9641;51.494;6.670;2023-03-01T13:55:32;12.80;99.90
19017;DHT22;9641;51.494;6.670;2023-03-01T13:58:04;12.60;99.90
19017;DHT22;9641;51.494;6.670;2023-03-01T14:00:40;12.50;99.90
19017;DHT22;9641;51.494;6.670;2023-03-01T14:03:13;12.50;99.90
19017;DHT22;9641;51.494;6.670;2023-03-01T14:05:41;12.90;99.90
19017;DHT22;9641;51.494;6.670;2023-03-01T14:08:22;13.20;99.90
19017;DHT22;9641;51.494;6.670;2023-03-01T14:11:04;12.40;99.90
19017;DHT22;9641;51.494;6.670;2023-03-01T14:13:56;12.70;99.90
19017;DHT22;9641;51.494;6.670;2023-03-01T14:16:36;13.00;99.90
19017;DHT22;9641;51.494;6.670;2023-03-01T14:19:16;13.50;99.90
19017;DHT22;9641;51.494;6.670;2023-03-01T14:21:46;13.30;99.90
19017;DHT22;9641;51.494;6.670;2023-03-01T14:24:21;13.40;99.90
19017;DHT22;9641;51.494;6.670;2023-03-01T14:26:50;12.40;99.90
19017;DHT22;9641;51.494;6.670;2023-03-01T14:29:25;12.00;99.90
19017;DHT22;9641;51.494;6.670;2023-03-01T14:31:52;12.50;99.90
19017;DHT22;9641;51.494;6.670;2023-03-01T14:34:20;12.60;99.90
19017;DHT22;9641;51.494;6.670;2023-03-01T14:36:48;12.40;99.90
19017;DHT22;9641;51.494;6.670;2023-03-01T14:39:19;12.20;99.90
19017;DHT22;9641;51.494;6.670;2023-03-01T14:41:49;12.80;99.90
19017;DHT22;9641;51.494;6.670;2023-03-01T14:44:19;12.40;99.90
19017;DHT22;9641;51.494;6.670;2023-03-01T14:46:52;12.10;99.90
19017;DHT22;9641;51.494;6.670;2023-03-01T14:49:22;13.10;99.90
19017;DHT22;9641;51.494;6.670;2023-03-01T14:52:05;13.40;99.90
19017;DHT22;9641;51.494;6.670;2023-03-01T14:54:39;13.50;99.90
19017;DHT22;9641;51.494;6.670;2023-03-01T14:57:15;13.10;99.90
19017;DHT22;9641;51.494;6.670;2023-03-01T14:59:43;12.70;99.90
19017;DHT22;9641;51.494;6.670;2023-03-01T15:02:14;12.60;99.90
19017;DHT22;9641;51.494;6.670;2023-03-01T15:04:43;12.50;99.90
19017;DHT22;9641;51.494;6.670;2023-03-01T15:07:13;12.70;99.90
19017;DHT22;9641;51.494;6.670;2023-03-01T15:09:41;12.70;99.90
19017;DHT22;9641;51.494;6.670;2023-03-01T15:12:35;12.60;99.90
19017;DHT22;9641;51.494;6.670;2023-03-01T15:15:36;13.10;99.90
19017;DHT22;9641;51.494;6.670;2023-03-01T15:18:16;12.90;99.90
19017;DHT22;9641;51.494;6.670;2023-03-01T15:20:43;12.60;99.90
19017;DHT22;9641;51.494;6.670;2023-03-01T15:23:35;11.80;99.90
19017;DHT22;9641;51.494;6.670;2023-03-01T15:26:05;11.10;99.90
19017;DHT22;9641;51.494;6.670;2023-03-01T15:28:49;9.80;99.90
19017;DHT22;9641;51.494;6.670;2023-03-01T15:31:27;9.10;99.90
19017;DHT22;9641;51.494;6.670;2023-03-01T15:34:22;8.60;99.90
19017;DHT22;9641;51.494;6.670;2023-03-01T15:37:05;8.20;99.90
19017;DHT22;9641;51.494;6.670;2023-03-01T15:39:43;8.00;99.90
19017;DHT22;9641;51.494;6.670;2023-03-01T15:42:36;7.80;99.90
19017;DHT22;9641;51.494;6.670;2023-03-01T15:45:21;7.70;99.90
19017;DHT22;9641;51.494;6.670;2023-03-01T15:47:51;7.70;99.90
19017;DHT22;9641;51.494;6.670;2023-03-01T15:50:28;7.60;99.90
19017;DHT22;9641;51.494;6.670;2023-03-01T15:52:56;7.40;99.90
19017;DHT22;9641;51.494;6.670;2023-03-01T15:55:26;7.20;99.90
19017;DHT22;9641;51.494;6.670;2023-03-01T15:58:00;7.20;99.90
19017;DHT22;9641;51.494;6.670;2023-03-01T16:00:29;7.20;99.90
19017;DHT22;9641;51.494;6.670;2023-03-01T16:02:56;7.10;99.90
19017;DHT22;9641;51.494;6.670;2023-03-01T16:05:25;7.00;99.90
19017;DHT22;9641;51.494;6.670;2023-03-01T16:07:53;7.00;99.90
19017;DHT22;9641;51.494;6.670;2023-03-01T16:10:37;7.00;99.90
19017;DHT22;9641;51.494;6.670;2023-03-01T16:13:05;7.10;99.90
19017;DHT22;9641;51.494;6.670;2023-03-01T16:15:37;7.10;99.90
19017;DHT22;9641;51.494;6.670;2023-03-01T16:18:05;7.00;99.90
19017;DHT22;9641;51.494;6.670;2023-03-01T16:20:36;6.90;99.90
19017;DHT22;9641;51.494;6.670;2023-03-01T16:23:05;6.80;99.90
19017;DHT22;9641;51.494;6.670;2023-03-01T16:25:33;6.70;99.90
19017;DHT22;9641;51.494;6.670;2023-03-01T16:28:00;6.60;99.90
19017;DHT22;9641;51.494;6.670;2023-03-01T16:30:30;6.60;99.90
19017;DHT22;9641;51.494;6.670;2023-03-01T16:32:58;6.50;99.90